sensor_id;sensor_type;location;lat;lon;timestamp;P1;durP1;ratioP1;P2;durP2;ratioP2
56629;SDS011;42502;40.732;-74.254;2022-11-20T00:00:56;2.55;;;0.77;;
56629;SDS011;42502;40.732;-74.254;2022-11-20T00:02:57;0.95;;;0.60;;
56629;SDS011;42502;40.732;-74.254;2022-11-20T00:04:58;4.47;;;0.70;;
56629;SDS011;42502;40.732;-74.254;2022-11-20T00:06:58;3.20;;;0.85;;
56629;SDS011;42502;40.732;-74.254;2022-11-20T00:08:59;6.43;;;0.90;;
56629;SDS011;42502;40.732;-74.254;2022-11-20T00:11:12;3.42;;;0.75;;
56629;SDS011;42502;40.732;-74.254;2022-11-20T00:13:14;4.60;;;0.77;;
56629;SDS011;42502;40.732;-74.254;2022-11-20T00:15:15;4.68;;;0.85;;
56629;SDS011;42502;40.732;-74.254;2022-11-20T00:17:16;4.25;;;0.70;;
56629;SDS011;42502;40.732;-74.254;2022-11-20T00:19:17;4.57;;;0.80;;
56629;SDS011;42502;40.732;-74.254;2022-11-20T00:21:19;3.08;;;0.65;;
56629;SDS011;42502;40.732;-74.254;2022-11-20T00:23:22;3.45;;;0.90;;
56629;SDS011;42502;40.732;-74.254;2022-11-20T00:25:22;1.65;;;0.70;;
56629;SDS011;42502;40.732;-74.254;2022-11-20T00:27:23;4.78;;;0.80;;
56629;SDS011;42502;40.732;-74.254;2022-11-20T00:29:24;1.50;;;0.70;;
56629;SDS011;42502;40.732;-74.254;2022-11-20T00:31:34;4.60;;;0.77;;
56629;SDS011;42502;40.732;-74.254;2022-11-20T00:33:35;4.10;;;0.70;;
56629;SDS011;42502;40.732;-74.254;2022-11-20T00:35:36;4.82;;;0.77;;
56629;SDS011;42502;40.732;-74.254;2022-11-20T00:37:37;9.75;;;0.95;;
56629;SDS011;42502;40.732;-74.254;2022-11-20T00:39:38;1.42;;;0.95;;
56629;SDS011;42502;40.732;-74.254;2022-11-20T00:41:39;6.45;;;0.98;;
56629;SDS011;42502;40.732;-74.254;2022-11-20T00:43:40;4.95;;;0.98;;
56629;SDS011;42502;40.732;-74.254;2022-11-20T00:45:41;4.38;;;0.82;;
56629;SDS011;42502;40.732;-74.254;2022-11-20T00:47:41;3.47;;;0.80;;
56629;SDS011;42502;40.732;-74.254;2022-11-20T00:49:42;3.42;;;0.90;;
56629;SDS011;42502;40.732;-74.254;2022-11-20T00:51:43;7.78;;;0.98;;
56629;SDS011;42502;40.732;-74.254;2022-11-20T00:53:45;4.97;;;1.00;;
56629;SDS011;42502;40.732;-74.254;2022-11-20T00:55:55;6.00;;;1.08;;
56629;SDS011;42502;40.732;-74.254;2022-11-20T00:57:57;4.25;;;0.90;;
56629;SDS011;42502;40.732;-74.254;2022-11-20T00:59:58;11.45;;;1.55;;
56629;SDS011;42502;40.732;-74.254;2022-11-20T01:01:59;13.13;;;1.15;;
56629;SDS011;42502;40.732;-74.254;2022-11-20T01:04:00;7.30;;;0.90;;
56629;SDS011;42502;40.732;-74.254;2022-11-20T01:06:01;3.00;;;0.90;;
56629;SDS011;42502;40.732;-74.254;2022-11-20T01:08:04;4.18;;;1.00;;
56629;SDS011;42502;40.732;-74.254;2022-11-20T01:10:05;6.50;;;1.10;;
56629;SDS011;42502;40.732;-74.254;2022-11-20T01:12:06;3.65;;;1.10;;
56629;SDS011;42502;40.732;-74.254;2022-11-20T01:14:09;4.47;;;0.95;;
56629;SDS011;42502;40.732;-74.254;2022-11-20T01:18:19;4.05;;;1.08;;
56629;SDS011;42502;40.732;-74.254;2022-11-20T01:20:20;8.05;;;1.48;;
56629;SDS011;42502;40.732;-74.254;2022-11-20T01:22:21;5.97;;;1.10;;
56629;SDS011;42502;40.732;-74.254;2022-11-20T01:24:22;7.82;;;1.50;;
56629;SDS011;42502;40.732;-74.254;2022-11-20T01:26:24;4.97;;;1.00;;
56629;SDS011;42502;40.732;-74.254;2022-11-20T01:28:26;9.80;;;1.08;;
56629;SDS011;42502;40.732;-74.254;2022-11-20T01:30:30;5.13;;;1.10;;
56629;SDS011;42502;40.732;-74.254;2022-11-20T01:32:31;10.80;;;1.42;;
56629;SDS011;42502;40.732;-74.254;2022-11-20T01:34:32;4.10;;;1.10;;
56629;SDS011;42502;40.732;-74.254;2022-11-20T01:36:33;5.82;;;1.35;;
56629;SDS011;42502;40.732;-74.254;2022-11-20T01:38:36;6.65;;;1.20;;
56629;SDS011;42502;40.732;-74.254;2022-11-20T01:40:37;8.60;;;1.48;;
56629;SDS011;42502;40.732;-74.254;2022-11-20T01:42:37;6.22;;;1.08;;
56629;SDS011;42502;40.732;-74.254;2022-11-20T01:45:00;3.85;;;1.40;;
56629;SDS011;42502;40.732;-74.254;2022-11-20T01:47:33;6.57;;;1.27;;
56629;SDS011;42502;40.732;-74.254;2022-11-20T01:49:45;11.80;;;1.42;;
56629;SDS011;42502;40.732;-74.254;2022-11-20T01:51:53;3.80;;;1.10;;
56629;SDS011;42502;40.732;-74.254;2022-11-20T01:54:00;5.32;;;1.20;;
56629;SDS011;42502;40.732;-74.254;2022-11-20T01:56:05;8.25;;;1.42;;
56629;SDS011;42502;40.732;-74.254;2022-11-20T01:58:10;8.00;;;1.40;;
56629;SDS011;42502;40.732;-74.254;2022-11-20T02:00:13;6.50;;;1.25;;
56629;SDS011;42502;40.732;-74.254;2022-11-20T02:02:16;13.13;;;1.50;;
56629;SDS011;42502;40.732;-74.254;2022-11-20T02:04:17;7.57;;;1.60;;
56629;SDS011;42502;40.732;-74.254;2022-11-20T02:08:23;4.57;;;1.45;;
56629;SDS011;42502;40.732;-74.254;2022-11-20T02:10:24;7.55;;;1.33;;
56629;SDS011;42502;40.732;-74.254;2022-11-20T02:12:29;5.73;;;1.53;;
56629;SDS011;42502;40.732;-74.254;2022-11-20T02:14:48;8.20;;;1.60;;
56629;SDS011;42502;40.732;-74.254;2022-11-20T02:16:49;10.02;;;1.80;;
56629;SDS011;42502;40.732;-74.254;2022-11-20T02:18:51;7.30;;;1.33;;
56629;SDS011;42502;40.732;-74.254;2022-11-20T02:20:58;11.48;;;2.83;;
56629;SDS011;42502;40.732;-74.254;2022-11-20T02:23:38;5.88;;;1.60;;
56629;SDS011;42502;40.732;-74.254;2022-11-20T02:25:46;15.50;;;1.95;;
56629;SDS011;42502;40.732;-74.254;2022-11-20T02:27:51;7.40;;;1.60;;
56629;SDS011;42502;40.732;-74.254;2022-11-20T02:29:53;10.02;;;1.95;;
56629;SDS011;42502;40.732;-74.254;2022-11-20T02:31:57;9.05;;;1.48;;
56629;SDS011;42502;40.732;-74.254;2022-11-20T02:34:02;9.35;;;1.55;;
56629;SDS011;42502;40.732;-74.254;2022-11-20T02:36:07;18.77;;;2.50;;
56629;SDS011;42502;40.732;-74.254;2022-11-20T02:38:11;18.05;;;1.73;;
56629;SDS011;42502;40.732;-74.254;2022-11-20T02:40:13;13.07;;;1.65;;
56629;SDS011;42502;40.732;-74.254;2022-11-20T02:42:14;8.35;;;2.00;;
56629;SDS011;42502;40.732;-74.254;2022-11-20T02:44:16;15.70;;;3.50;;
56629;SDS011;42502;40.732;-74.254;2022-11-20T02:46:17;14.05;;;2.17;;
56629;SDS011;42502;40.732;-74.254;2022-11-20T02:48:20;8.68;;;2.05;;
56629;SDS011;42502;40.732;-74.254;2022-11-20T02:50:21;13.77;;;2.03;;
56629;SDS011;42502;40.732;-74.254;2022-11-20T02:52:22;20.90;;;2.30;;
56629;SDS011;42502;40.732;-74.254;2022-11-20T02:54:24;9.68;;;1.80;;
56629;SDS011;42502;40.732;-74.254;2022-11-20T02:56:25;8.05;;;1.60;;
56629;SDS011;42502;40.732;-74.254;2022-11-20T02:58:26;16.13;;;1.85;;
56629;SDS011;42502;40.732;-74.254;2022-11-20T03:00:27;10.52;;;2.00;;
56629;SDS011;42502;40.732;-74.254;2022-11-20T03:02:31;9.57;;;1.95;;
56629;SDS011;42502;40.732;-74.254;2022-11-20T03:04:32;20.38;;;1.92;;
56629;SDS011;42502;40.732;-74.254;2022-11-20T03:06:33;11.18;;;1.60;;
56629;SDS011;42502;40.732;-74.254;2022-11-20T03:08:34;13.27;;;2.47;;
56629;SDS011;42502;40.732;-74.254;2022-11-20T03:10:35;12.82;;;2.50;;
56629;SDS011;42502;40.732;-74.254;2022-11-20T03:12:36;15.63;;;2.05;;
56629;SDS011;42502;40.732;-74.254;2022-11-20T03:14:37;25.20;;;2.78;;
56629;SDS011;42502;40.732;-74.254;2022-11-20T03:16:38;19.77;;;2.55;;
56629;SDS011;42502;40.732;-74.254;2022-11-20T03:18:39;14.75;;;2.30;;
56629;SDS011;42502;40.732;-74.254;2022-11-20T03:20:41;9.25;;;2.47;;
56629;SDS011;42502;40.732;-74.254;2022-11-20T03:22:42;9.55;;;2.15;;
56629;SDS011;42502;40.732;-74.254;2022-11-20T03:24:43;13.52;;;2.55;;
56629;SDS011;42502;40.732;-74.254;2022-11-20T03:26:44;6.78;;;2.17;;
56629;SDS011;42502;40.732;-74.254;2022-11-20T03:29:03;11.55;;;1.80;;
56629;SDS011;42502;40.732;-74.254;2022-11-20T03:31:08;9.82;;;2.20;;
56629;SDS011;42502;40.732;-74.254;2022-11-20T03:33:11;15.20;;;2.10;;
56629;SDS011;42502;40.732;-74.254;2022-11-20T03:35:11;15.30;;;2.47;;
56629;SDS011;42502;40.732;-74.254;2022-11-20T03:37:12;4.35;;;1.85;;
56629;SDS011;42502;40.732;-74.254;2022-11-20T03:39:13;4.00;;;1.85;;
56629;SDS011;42502;40.732;-74.254;2022-11-20T03:41:18;9.52;;;1.88;;
56629;SDS011;42502;40.732;-74.254;2022-11-20T03:43:23;4.45;;;1.65;;
56629;SDS011;42502;40.732;-74.254;2022-11-20T03:45:27;8.52;;;2.33;;
56629;SDS011;42502;40.732;-74.254;2022-11-20T03:47:28;3.83;;;1.98;;
56629;SDS011;42502;40.732;-74.254;2022-11-20T03:49:31;5.47;;;2.45;;
56629;SDS011;42502;40.732;-74.254;2022-11-20T03:51:33;5.93;;;2.28;;
56629;SDS011;42502;40.732;-74.254;2022-11-20T03:53:38;7.65;;;1.88;;
56629;SDS011;42502;40.732;-74.254;2022-11-20T03:55:40;7.57;;;2.08;;
56629;SDS011;42502;40.732;-74.254;2022-11-20T03:57:41;8.10;;;2.83;;
56629;SDS011;42502;40.732;-74.254;2022-11-20T03:59:41;11.63;;;2.28;;
56629;SDS011;42502;40.732;-74.254;2022-11-20T04:01:48;24.55;;;3.28;;
56629;SDS011;42502;40.732;-74.254;2022-11-20T04:03:49;11.50;;;2.25;;
56629;SDS011;42502;40.732;-74.254;2022-11-20T04:05:51;8.57;;;1.95;;
56629;SDS011;42502;40.732;-74.254;2022-11-20T04:07:52;7.78;;;1.95;;
56629;SDS011;42502;40.732;-74.254;2022-11-20T04:09:53;9.70;;;2.13;;
56629;SDS011;42502;40.732;-74.254;2022-11-20T04:11:57;7.85;;;2.28;;
56629;SDS011;42502;40.732;-74.254;2022-11-20T04:14:01;9.55;;;2.15;;
56629;SDS011;42502;40.732;-74.254;2022-11-20T04:16:05;9.38;;;2.00;;
56629;SDS011;42502;40.732;-74.254;2022-11-20T04:18:06;10.02;;;2.88;;
56629;SDS011;42502;40.732;-74.254;2022-11-20T04:20:10;8.10;;;1.95;;
56629;SDS011;42502;40.732;-74.254;2022-11-20T04:22:11;5.50;;;1.92;;
56629;SDS011;42502;40.732;-74.254;2022-11-20T04:24:12;9.60;;;2.55;;
56629;SDS011;42502;40.732;-74.254;2022-11-20T04:26:13;6.00;;;1.90;;
56629;SDS011;42502;40.732;-74.254;2022-11-20T04:28:14;9.95;;;1.70;;
56629;SDS011;42502;40.732;-74.254;2022-11-20T04:30:15;6.82;;;1.92;;
56629;SDS011;42502;40.732;-74.254;2022-11-20T04:32:16;10.05;;;2.03;;
56629;SDS011;42502;40.732;-74.254;2022-11-20T04:34:17;5.90;;;1.83;;
56629;SDS011;42502;40.732;-74.254;2022-11-20T04:36:18;10.05;;;2.33;;
56629;SDS011;42502;40.732;-74.254;2022-11-20T04:38:24;11.35;;;2.50;;
56629;SDS011;42502;40.732;-74.254;2022-11-20T04:40:25;4.95;;;2.08;;
56629;SDS011;42502;40.732;-74.254;2022-11-20T04:42:26;8.90;;;2.33;;
56629;SDS011;42502;40.732;-74.254;2022-11-20T04:44:29;9.93;;;2.55;;
56629;SDS011;42502;40.732;-74.254;2022-11-20T04:46:37;11.27;;;2.58;;
56629;SDS011;42502;40.732;-74.254;2022-11-20T04:48:42;9.80;;;1.98;;
56629;SDS011;42502;40.732;-74.254;2022-11-20T04:50:44;12.00;;;2.35;;
56629;SDS011;42502;40.732;-74.254;2022-11-20T04:52:45;8.88;;;2.42;;
56629;SDS011;42502;40.732;-74.254;2022-11-20T04:54:45;5.88;;;1.90;;
56629;SDS011;42502;40.732;-74.254;2022-11-20T04:56:49;10.80;;;1.98;;
56629;SDS011;42502;40.732;-74.254;2022-11-20T04:58:50;6.32;;;1.67;;
56629;SDS011;42502;40.732;-74.254;2022-11-20T05:00:51;9.10;;;2.00;;
56629;SDS011;42502;40.732;-74.254;2022-11-20T05:02:52;6.57;;;2.13;;
56629;SDS011;42502;40.732;-74.254;2022-11-20T05:04:53;7.70;;;1.98;;
56629;SDS011;42502;40.732;-74.254;2022-11-20T05:06:54;6.32;;;1.90;;
56629;SDS011;42502;40.732;-74.254;2022-11-20T05:08:55;7.82;;;1.70;;
56629;SDS011;42502;40.732;-74.254;2022-11-20T05:10:59;4.85;;;1.50;;
56629;SDS011;42502;40.732;-74.254;2022-11-20T05:13:08;7.80;;;2.13;;
56629;SDS011;42502;40.732;-74.254;2022-11-20T05:15:09;7.60;;;1.83;;
56629;SDS011;42502;40.732;-74.254;2022-11-20T05:17:10;6.97;;;1.90;;
56629;SDS011;42502;40.732;-74.254;2022-11-20T05:19:12;6.38;;;1.92;;
56629;SDS011;42502;40.732;-74.254;2022-11-20T05:21:13;6.78;;;1.52;;
56629;SDS011;42502;40.732;-74.254;2022-11-20T05:23:14;6.07;;;1.70;;
56629;SDS011;42502;40.732;-74.254;2022-11-20T05:25:15;3.90;;;1.70;;
56629;SDS011;42502;40.732;-74.254;2022-11-20T05:27:19;4.35;;;1.70;;
56629;SDS011;42502;40.732;-74.254;2022-11-20T05:29:20;5.22;;;1.67;;
56629;SDS011;42502;40.732;-74.254;2022-11-20T05:31:23;3.95;;;1.60;;
56629;SDS011;42502;40.732;-74.254;2022-11-20T05:33:25;4.30;;;1.80;;
56629;SDS011;42502;40.732;-74.254;2022-11-20T05:35:26;6.22;;;1.92;;
56629;SDS011;42502;40.732;-74.254;2022-11-20T05:37:26;5.43;;;1.83;;
56629;SDS011;42502;40.732;-74.254;2022-11-20T05:39:27;4.43;;;1.45;;
56629;SDS011;42502;40.732;-74.254;2022-11-20T05:41:28;4.32;;;1.60;;
56629;SDS011;42502;40.732;-74.254;2022-11-20T05:43:31;3.65;;;1.33;;
56629;SDS011;42502;40.732;-74.254;2022-11-20T05:45:35;4.93;;;1.48;;
56629;SDS011;42502;40.732;-74.254;2022-11-20T05:47:39;6.22;;;1.40;;
56629;SDS011;42502;40.732;-74.254;2022-11-20T05:49:40;5.03;;;1.30;;
56629;SDS011;42502;40.732;-74.254;2022-11-20T05:51:41;4.68;;;1.42;;
56629;SDS011;42502;40.732;-74.254;2022-11-20T05:53:42;2.90;;;1.60;;
56629;SDS011;42502;40.732;-74.254;2022-11-20T05:55:43;4.45;;;1.42;;
56629;SDS011;42502;40.732;-74.254;2022-11-20T05:57:44;4.03;;;1.60;;
56629;SDS011;42502;40.732;-74.254;2022-11-20T05:59:45;4.15;;;1.40;;
56629;SDS011;42502;40.732;-74.254;2022-11-20T06:01:46;3.88;;;1.40;;
56629;SDS011;42502;40.732;-74.254;2022-11-20T06:03:46;4.05;;;1.45;;
56629;SDS011;42502;40.732;-74.254;2022-11-20T06:05:49;4.43;;;1.50;;
56629;SDS011;42502;40.732;-74.254;2022-11-20T06:07:50;3.30;;;1.20;;
56629;SDS011;42502;40.732;-74.254;2022-11-20T06:09:51;2.40;;;1.20;;
56629;SDS011;42502;40.732;-74.254;2022-11-20T06:11:52;1.85;;;1.25;;
56629;SDS011;42502;40.732;-74.254;2022-11-20T06:13:53;4.57;;;1.38;;
56629;SDS011;42502;40.732;-74.254;2022-11-20T06:15:54;2.42;;;1.52;;
56629;SDS011;42502;40.732;-74.254;2022-11-20T06:17:55;3.30;;;1.42;;
56629;SDS011;42502;40.732;-74.254;2022-11-20T06:19:56;2.00;;;1.08;;
56629;SDS011;42502;40.732;-74.254;2022-11-20T06:21:57;5.40;;;1.52;;
56629;SDS011;42502;40.732;-74.254;2022-11-20T06:23:57;2.75;;;1.10;;
56629;SDS011;42502;40.732;-74.254;2022-11-20T06:26:05;2.10;;;1.27;;
56629;SDS011;42502;40.732;-74.254;2022-11-20T06:28:10;3.05;;;1.52;;
56629;SDS011;42502;40.732;-74.254;2022-11-20T06:30:11;1.90;;;1.27;;
56629;SDS011;42502;40.732;-74.254;2022-11-20T06:32:12;1.80;;;1.20;;
56629;SDS011;42502;40.732;-74.254;2022-11-20T06:34:13;4.93;;;1.55;;
56629;SDS011;42502;40.732;-74.254;2022-11-20T06:36:14;3.60;;;1.30;;
56629;SDS011;42502;40.732;-74.254;2022-11-20T06:38:17;2.33;;;1.10;;
56629;SDS011;42502;40.732;-74.254;2022-11-20T06:40:18;1.73;;;1.10;;
56629;SDS011;42502;40.732;-74.254;2022-11-20T06:42:18;1.90;;;1.10;;
56629;SDS011;42502;40.732;-74.254;2022-11-20T06:44:19;3.33;;;1.50;;
56629;SDS011;42502;40.732;-74.254;2022-11-20T06:46:20;1.58;;;1.00;;
56629;SDS011;42502;40.732;-74.254;2022-11-20T06:48:22;3.10;;;1.27;;
56629;SDS011;42502;40.732;-74.254;2022-11-20T06:50:23;2.40;;;1.20;;
56629;SDS011;42502;40.732;-74.254;2022-11-20T06:52:24;5.22;;;1.33;;
56629;SDS011;42502;40.732;-74.254;2022-11-20T06:54:25;2.05;;;1.30;;
56629;SDS011;42502;40.732;-74.254;2022-11-20T06:56:26;3.13;;;1.23;;
56629;SDS011;42502;40.732;-74.254;2022-11-20T06:58:28;4.13;;;1.38;;
56629;SDS011;42502;40.732;-74.254;2022-11-20T07:00:30;2.85;;;1.20;;
56629;SDS011;42502;40.732;-74.254;2022-11-20T07:02:36;1.05;;;0.85;;
56629;SDS011;42502;40.732;-74.254;2022-11-20T07:04:38;1.17;;;1.00;;
56629;SDS011;42502;40.732;-74.254;2022-11-20T07:06:39;1.67;;;1.13;;
56629;SDS011;42502;40.732;-74.254;2022-11-20T07:08:40;3.17;;;1.15;;
56629;SDS011;42502;40.732;-74.254;2022-11-20T07:10:43;1.23;;;1.10;;
56629;SDS011;42502;40.732;-74.254;2022-11-20T07:12:48;2.13;;;1.00;;
56629;SDS011;42502;40.732;-74.254;2022-11-20T07:14:50;1.75;;;1.30;;
56629;SDS011;42502;40.732;-74.254;2022-11-20T07:16:51;2.70;;;1.10;;
56629;SDS011;42502;40.732;-74.254;2022-11-20T07:18:52;2.95;;;0.90;;
56629;SDS011;42502;40.732;-74.254;2022-11-20T07:20:53;1.65;;;0.95;;
56629;SDS011;42502;40.732;-74.254;2022-11-20T07:22:54;1.42;;;1.00;;
56629;SDS011;42502;40.732;-74.254;2022-11-20T07:24:56;1.10;;;1.00;;
56629;SDS011;42502;40.732;-74.254;2022-11-20T07:26:57;1.88;;;1.10;;
56629;SDS011;42502;40.732;-74.254;2022-11-20T07:29:00;2.42;;;1.15;;
56629;SDS011;42502;40.732;-74.254;2022-11-20T07:31:01;1.25;;;1.05;;
56629;SDS011;42502;40.732;-74.254;2022-11-20T07:33:07;1.52;;;0.93;;
56629;SDS011;42502;40.732;-74.254;2022-11-20T07:35:08;1.15;;;1.00;;
56629;SDS011;42502;40.732;-74.254;2022-11-20T07:37:09;1.10;;;0.80;;
56629;SDS011;42502;40.732;-74.254;2022-11-20T07:39:10;1.27;;;0.85;;
56629;SDS011;42502;40.732;-74.254;2022-11-20T07:41:11;1.80;;;1.00;;
56629;SDS011;42502;40.732;-74.254;2022-11-20T07:43:11;1.42;;;0.90;;
56629;SDS011;42502;40.732;-74.254;2022-11-20T07:45:15;1.48;;;0.90;;
56629;SDS011;42502;40.732;-74.254;2022-11-20T07:47:17;1.08;;;0.85;;
56629;SDS011;42502;40.732;-74.254;2022-11-20T07:49:17;0.80;;;0.80;;
56629;SDS011;42502;40.732;-74.254;2022-11-20T07:51:18;1.10;;;0.90;;
56629;SDS011;42502;40.732;-74.254;2022-11-20T07:53:19;1.65;;;1.00;;
56629;SDS011;42502;40.732;-74.254;2022-11-20T07:55:21;1.85;;;0.90;;
56629;SDS011;42502;40.732;-74.254;2022-11-20T07:57:25;0.98;;;0.80;;
56629;SDS011;42502;40.732;-74.254;2022-11-20T07:59:26;1.67;;;1.08;;
56629;SDS011;42502;40.732;-74.254;2022-11-20T08:01:30;1.38;;;0.85;;
56629;SDS011;42502;40.732;-74.254;2022-11-20T08:03:30;3.17;;;0.90;;
56629;SDS011;42502;40.732;-74.254;2022-11-20T08:05:34;0.88;;;0.80;;
56629;SDS011;42502;40.732;-74.254;2022-11-20T08:07:38;1.38;;;0.88;;
56629;SDS011;42502;40.732;-74.254;2022-11-20T08:09:43;3.15;;;0.95;;
56629;SDS011;42502;40.732;-74.254;2022-11-20T08:11:44;1.23;;;0.80;;
56629;SDS011;42502;40.732;-74.254;2022-11-20T08:14:03;1.83;;;0.93;;
56629;SDS011;42502;40.732;-74.254;2022-11-20T08:16:13;1.52;;;1.00;;
56629;SDS011;42502;40.732;-74.254;2022-11-20T08:18:13;1.33;;;0.90;;
56629;SDS011;42502;40.732;-74.254;2022-11-20T08:20:15;1.50;;;0.95;;
56629;SDS011;42502;40.732;-74.254;2022-11-20T08:22:16;0.88;;;0.80;;
56629;SDS011;42502;40.732;-74.254;2022-11-20T08:24:17;2.10;;;0.82;;
56629;SDS011;42502;40.732;-74.254;2022-11-20T08:26:18;1.48;;;0.90;;
56629;SDS011;42502;40.732;-74.254;2022-11-20T08:28:20;1.02;;;0.80;;
56629;SDS011;42502;40.732;-74.254;2022-11-20T08:30:21;1.48;;;0.90;;
56629;SDS011;42502;40.732;-74.254;2022-11-20T08:32:22;1.05;;;0.80;;
56629;SDS011;42502;40.732;-74.254;2022-11-20T08:34:23;1.42;;;0.90;;
56629;SDS011;42502;40.732;-74.254;2022-11-20T08:36:24;1.30;;;0.90;;
56629;SDS011;42502;40.732;-74.254;2022-11-20T08:38:25;0.90;;;0.80;;
56629;SDS011;42502;40.732;-74.254;2022-11-20T08:40:29;1.65;;;0.80;;
56629;SDS011;42502;40.732;-74.254;2022-11-20T08:42:30;0.80;;;0.80;;
56629;SDS011;42502;40.732;-74.254;2022-11-20T08:44:33;1.58;;;0.90;;
56629;SDS011;42502;40.732;-74.254;2022-11-20T08:46:38;0.80;;;0.75;;
56629;SDS011;42502;40.732;-74.254;2022-11-20T08:48:44;1.10;;;0.88;;
56629;SDS011;42502;40.732;-74.254;2022-11-20T08:50:45;0.90;;;0.80;;
56629;SDS011;42502;40.732;-74.254;2022-11-20T08:52:46;1.67;;;0.60;;
56629;SDS011;42502;40.732;-74.254;2022-11-20T08:54:46;1.00;;;0.80;;
56629;SDS011;42502;40.732;-74.254;2022-11-20T08:56:48;0.80;;;0.70;;
56629;SDS011;42502;40.732;-74.254;2022-11-20T08:58:49;1.00;;;0.80;;
56629;SDS011;42502;40.732;-74.254;2022-11-20T09:00:51;1.58;;;0.90;;
56629;SDS011;42502;40.732;-74.254;2022-11-20T09:02:53;0.98;;;0.80;;
56629;SDS011;42502;40.732;-74.254;2022-11-20T09:04:53;1.27;;;0.80;;
56629;SDS011;42502;40.732;-74.254;2022-11-20T09:06:54;1.10;;;0.77;;
56629;SDS011;42502;40.732;-74.254;2022-11-20T09:08:55;0.90;;;0.70;;
56629;SDS011;42502;40.732;-74.254;2022-11-20T09:10:57;4.20;;;0.70;;
56629;SDS011;42502;40.732;-74.254;2022-11-20T09:12:58;0.88;;;0.85;;
56629;SDS011;42502;40.732;-74.254;2022-11-20T09:14:59;1.45;;;0.80;;
56629;SDS011;42502;40.732;-74.254;2022-11-20T09:17:00;2.00;;;0.90;;
56629;SDS011;42502;40.732;-74.254;2022-11-20T09:19:01;3.20;;;0.70;;
56629;SDS011;42502;40.732;-74.254;2022-11-20T09:21:02;2.90;;;0.90;;
56629;SDS011;42502;40.732;-74.254;2022-11-20T09:23:06;2.25;;;0.77;;
56629;SDS011;42502;40.732;-74.254;2022-11-20T09:25:07;1.27;;;0.82;;
56629;SDS011;42502;40.732;-74.254;2022-11-20T09:27:08;6.45;;;0.90;;
56629;SDS011;42502;40.732;-74.254;2022-11-20T09:29:09;2.03;;;0.80;;
56629;SDS011;42502;40.732;-74.254;2022-11-20T09:31:19;4.38;;;0.75;;
56629;SDS011;42502;40.732;-74.254;2022-11-20T09:33:23;1.85;;;0.73;;
56629;SDS011;42502;40.732;-74.254;2022-11-20T09:35:24;1.33;;;0.80;;
56629;SDS011;42502;40.732;-74.254;2022-11-20T09:37:27;1.42;;;0.90;;
56629;SDS011;42502;40.732;-74.254;2022-11-20T09:39:28;1.95;;;0.80;;
56629;SDS011;42502;40.732;-74.254;2022-11-20T09:41:34;5.30;;;1.10;;
56629;SDS011;42502;40.732;-74.254;2022-11-20T09:44:25;1.08;;;0.90;;
56629;SDS011;42502;40.732;-74.254;2022-11-20T09:46:39;1.42;;;0.90;;
56629;SDS011;42502;40.732;-74.254;2022-11-20T09:54:09;0.97;;;0.80;;
56629;SDS011;42502;40.732;-74.254;2022-11-20T09:56:14;1.25;;;0.70;;
56629;SDS011;42502;40.732;-74.254;2022-11-20T09:58:17;1.08;;;0.80;;
56629;SDS011;42502;40.732;-74.254;2022-11-20T10:00:32;1.50;;;0.80;;
56629;SDS011;42502;40.732;-74.254;2022-11-20T10:02:52;1.00;;;0.80;;
56629;SDS011;42502;40.732;-74.254;2022-11-20T10:07:21;1.10;;;0.80;;
56629;SDS011;42502;40.732;-74.254;2022-11-20T10:09:29;0.82;;;0.70;;
56629;SDS011;42502;40.732;-74.254;2022-11-20T10:16:41;3.13;;;0.88;;
56629;SDS011;42502;40.732;-74.254;2022-11-20T10:23:39;0.70;;;0.60;;
56629;SDS011;42502;40.732;-74.254;2022-11-20T10:26:00;0.60;;;0.60;;
56629;SDS011;42502;40.732;-74.254;2022-11-20T10:30:59;0.80;;;0.70;;
56629;SDS011;42502;40.732;-74.254;2022-11-20T10:37:28;1.42;;;0.70;;
56629;SDS011;42502;40.732;-74.254;2022-11-20T10:42:08;1.08;;;0.60;;
56629;SDS011;42502;40.732;-74.254;2022-11-20T10:44:15;1.63;;;0.68;;
56629;SDS011;42502;40.732;-74.254;2022-11-20T10:46:40;1.50;;;0.60;;
56629;SDS011;42502;40.732;-74.254;2022-11-20T10:48:46;1.10;;;0.60;;
56629;SDS011;42502;40.732;-74.254;2022-11-20T10:51:09;1.00;;;0.60;;
56629;SDS011;42502;40.732;-74.254;2022-11-20T10:53:17;0.60;;;0.55;;
56629;SDS011;42502;40.732;-74.254;2022-11-20T10:58:16;0.77;;;0.55;;
56629;SDS011;42502;40.732;-74.254;2022-11-20T11:00:22;0.95;;;0.68;;
56629;SDS011;42502;40.732;-74.254;2022-11-20T11:02:23;0.57;;;0.50;;
56629;SDS011;42502;40.732;-74.254;2022-11-20T11:04:36;0.80;;;0.60;;
56629;SDS011;42502;40.732;-74.254;2022-11-20T11:06:42;1.05;;;0.68;;
56629;SDS011;42502;40.732;-74.254;2022-11-20T11:08:48;1.25;;;0.60;;
56629;SDS011;42502;40.732;-74.254;2022-11-20T11:10:56;1.45;;;0.50;;
56629;SDS011;42502;40.732;-74.254;2022-11-20T11:13:01;0.65;;;0.60;;
56629;SDS011;42502;40.732;-74.254;2022-11-20T11:15:02;0.90;;;0.60;;
56629;SDS011;42502;40.732;-74.254;2022-11-20T11:17:03;2.35;;;0.50;;
56629;SDS011;42502;40.732;-74.254;2022-11-20T11:19:07;1.88;;;0.60;;
56629;SDS011;42502;40.732;-74.254;2022-11-20T11:21:12;0.80;;;0.57;;
56629;SDS011;42502;40.732;-74.254;2022-11-20T11:25:55;0.85;;;0.47;;
56629;SDS011;42502;40.732;-74.254;2022-11-20T11:27:59;4.32;;;0.60;;
56629;SDS011;42502;40.732;-74.254;2022-11-20T11:30:12;1.08;;;0.40;;
56629;SDS011;42502;40.732;-74.254;2022-11-20T11:32:17;1.20;;;0.55;;
56629;SDS011;42502;40.732;-74.254;2022-11-20T11:34:20;0.70;;;0.52;;
56629;SDS011;42502;40.732;-74.254;2022-11-20T11:36:21;1.80;;;0.50;;
56629;SDS011;42502;40.732;-74.254;2022-11-20T11:38:41;2.28;;;0.43;;
56629;SDS011;42502;40.732;-74.254;2022-11-20T11:40:44;0.80;;;0.50;;
56629;SDS011;42502;40.732;-74.254;2022-11-20T11:42:50;1.08;;;0.50;;
56629;SDS011;42502;40.732;-74.254;2022-11-20T11:44:59;2.92;;;0.50;;
56629;SDS011;42502;40.732;-74.254;2022-11-20T11:49:30;0.82;;;0.50;;
56629;SDS011;42502;40.732;-74.254;2022-11-20T11:52:17;1.25;;;0.50;;
56629;SDS011;42502;40.732;-74.254;2022-11-20T11:54:22;0.75;;;0.40;;
56629;SDS011;42502;40.732;-74.254;2022-11-20T11:56:45;4.28;;;0.50;;
56629;SDS011;42502;40.732;-74.254;2022-11-20T11:58:47;4.38;;;0.50;;
56629;SDS011;42502;40.732;-74.254;2022-11-20T12:00:54;1.05;;;0.40;;
56629;SDS011;42502;40.732;-74.254;2022-11-20T12:03:34;1.17;;;0.45;;
56629;SDS011;42502;40.732;-74.254;2022-11-20T12:05:42;2.30;;;0.40;;
56629;SDS011;42502;40.732;-74.254;2022-11-20T12:07:51;1.42;;;0.50;;
56629;SDS011;42502;40.732;-74.254;2022-11-20T12:09:57;1.23;;;0.45;;
56629;SDS011;42502;40.732;-74.254;2022-11-20T12:12:20;2.30;;;0.55;;
56629;SDS011;42502;40.732;-74.254;2022-11-20T12:14:35;1.38;;;0.40;;
56629;SDS011;42502;40.732;-74.254;2022-11-20T12:16:38;2.38;;;0.50;;
56629;SDS011;42502;40.732;-74.254;2022-11-20T12:18:40;0.73;;;0.50;;
56629;SDS011;42502;40.732;-74.254;2022-11-20T12:20:45;0.90;;;0.40;;
56629;SDS011;42502;40.732;-74.254;2022-11-20T12:23:08;2.25;;;0.40;;
56629;SDS011;42502;40.732;-74.254;2022-11-20T12:25:31;0.95;;;0.47;;
56629;SDS011;42502;40.732;-74.254;2022-11-20T12:36:40;1.25;;;0.50;;
56629;SDS011;42502;40.732;-74.254;2022-11-20T12:43:21;4.18;;;0.60;;
56629;SDS011;42502;40.732;-74.254;2022-11-20T12:55:41;3.58;;;0.70;;
56629;SDS011;42502;40.732;-74.254;2022-11-20T12:58:13;2.72;;;0.50;;
56629;SDS011;42502;40.732;-74.254;2022-11-20T13:00:22;3.35;;;0.50;;
56629;SDS011;42502;40.732;-74.254;2022-11-20T13:06:47;1.67;;;0.40;;
56629;SDS011;42502;40.732;-74.254;2022-11-20T13:08:52;1.77;;;0.50;;
56629;SDS011;42502;40.732;-74.254;2022-11-20T13:18:12;6.07;;;0.40;;
56629;SDS011;42502;40.732;-74.254;2022-11-20T13:20:17;4.18;;;0.55;;